OIAW

Details ICAO OIAW (AWZ)
Name AHWAZ
Region Iran
Timezone Asia/Tehran (UTC+3.5)
Plans Departing 32
Arriving 22
Stats Elevation 66 ft / 20 m (AMSL)
Location 31.337430° 48.761949°
Runways 1
Magnetic Variation 3.900° E
Sunrise 2017-12-17 03:38:58 UTC / 2017-12-17 07:08:58 Local
Sunset 2017-12-17 13:45:47 UTC / 2017-12-17 17:15:47 Local
Advertisement - Login to hide

Runways

ID Width Length Bearing (true) Bearing (mag) Surface Threshold Offset Overrun Length
12 148 ft / 45 m 11,147 ft / 3,398 m 124.24° 120.34° Asphalt 0 ft / 0 m 978 ft / 298 m
30 148 ft / 45 m 11,147 ft / 3,398 m 304.25° 300.35° Asphalt 0 ft / 0 m 978 ft / 298 m

Approach Navaids

Runway Type Ident Frequency Range Bearing (true) Bearing (mag) Slope Elevation
30 Localiser IAWZ 109.90 MHz 18 nm / 33 km 304.24° 300.34° - 66 ft / 20 m (AMSL)
30 Glidescope IAWZ 109.90 MHz 10 nm / 19 km 304.24° 300.34° 3.06° 64 ft / 20 m (AMSL)
30 DME IAWZ 109.90 MHz 18 nm / 33 km - - - 66 ft / 20 m (AMSL)

Map

Weather


0- 5 10 15 20 25 30 35+ Temperature / ° C

Clouds and Precipitation
Forecast for 2017-12-17 06:00 UTC. Updated an hour ago

Ground ~20,000 ft ~40,000 ft Winds

METAR

OIAW 170630Z 34004KT 6000 NSC 17/09 Q1022

TAF

TAF OIAW 170500Z 1706/1812 06003MPS 7000 NSC

Frequencies

Recorded 126.40 MHz ATIS
Tower 121.90 MHz TWR
Tower 122.70 MHz TWR
Tower 121.10 MHz TWR
Warning: Do not use this data for real-world aviation or navigation. No guarantee of current accuracy is given.